Aeroporto :
LOGIN :

Iscrizione | Disclaimer

   EN    FR    IT 

 










Sommario :    VFR   VFR Marginale   IFR   IFR Intensivo   IFR Molto Intensivo
Visibilità : 
Base nubi : 
>= 8 km
>= 3000ft
5 / 8 km
1000 / 3000 ft
1500m / 5 km
500 / 1000 ft
800 / 1500m
200 / 500 ft
< 800m
< 200 ft
Simboli :   Temporali  Nebbia  Neve Forte  Precipitazioni Forti  Vento > 20 kt
SIGMETs :   Varie  Temporali  Ghiacco  Turbolenza  Onda orograficha  Ceneri Vulcaniche






- Altitudine del aeroporto : 63 ft
- Codice IATA : BZM


EHWO - Woensdrecht Airbase

ULTIMO METAR :
  • 131659Z AUTO 15002KT 9999 SCT021 SCT024 BKN054 06/05 Q1000 WHT

METARs OBSOLETI :
  • 131655Z AUTO 16003KT 9999 FEW022 SCT026 OVC055 06/05 Q1000 BLU
  • 131625Z AUTO 16002KT 9999 SCT020 BKN024 BKN053 06/05 Q1000 WHT
  • 131555Z AUTO 20003KT 120V220 9999 FEW054 SCT060 OVC140 07/05 Q1000 BLU
  • 131525Z AUTO 21003KT 9999 FEW052 SCT059 OVC130 08/05 Q1000 BLU
  • 131455Z AUTO 21005KT 180V250 9999 FEW047 OVC140 08/05 Q1000 BLU
  • 131425Z AUTO 21005KT 180V240 9999 OVC140 08/05 Q1000 BLU

TAF AMD TAF EHWO
Valido dal 13 a 12 ore il 13 a 22 ore UTC


131213Z 1312/1322 20009KT 9999 SCT012 BKN015
TEMPO 1312/1317 23010G20KT 3500 SHRAGS SCT007 SCT018CB BKN022
PROB30
TEMPO 1312/1316 2500 TSRAGS SCT006 SCT015CB BKN020
BECMG 1315/1318 16007KT
BECMG 1317/1320 FEW015 SCT020



MetMap, La meteo Aeronautica in un colpo d'occhio ! - Copyright ORBIFLY Dicembre 2007 - Disclaimer

ORBIFLY MET'MAP TEAM :

Programmazione e sviluppo : Alexandra Zaïnal
Concezione e sviluppo : Baudouin d'Aumeries
Co-Programmazione e sviluppo : Marc-Olivier Méhu
Supporto tecnico e logistico : Manuel Goepfert
Aiuto per la traduzione : Arnaldo La Scala

Contatto : metmap@orbifly.com




FONTI E CREDITI :

   NOAA